Time;durP1;ratioP1;P1;durP2;ratioP2;P2;SDS_P1;SDS_P2;PMS_P1;PMS_P2;Temp;Humidity;BMP_temperature;BMP_pressure;BME280_temperature;BME280_humidity;BME280_pressure;Samples;Min_cycle;Max_cycle;Signal;HPM_P1;HPM_P2
2023/09/21 00:00:15;;;;;;;;;;;18.50;99.90;;;;;;5009461;28;20298;-80
2023/09/21 00:02:46;;;;;;;;;;;18.50;99.90;;;;;;5023650;28;19920;-80
2023/09/21 00:05:13;;;;;;;;;;;18.50;99.90;;;;;;5017343;28;19925;-77
2023/09/21 00:07:38;;;;;;;;;;;18.50;99.90;;;;;;5015124;28;19924;-76
2023/09/21 00:10:08;;;;;;;;;;;18.50;99.90;;;;;;5023161;28;19937;-80
2023/09/21 00:12:38;;;;;;;;;;;18.50;99.90;;;;;;5014252;28;20012;-80
2023/09/21 00:15:08;;;;;;;;;;;18.50;99.90;;;;;;5001739;28;19924;-81
2023/09/21 00:17:34;;;;;;;;;;;18.50;99.90;;;;;;5003552;28;19981;-80
2023/09/21 00:20:10;;;;;;;;;;;18.50;99.90;;;;;;5021815;28;19925;-80
2023/09/21 00:22:37;;;;;;;;;;;18.40;99.90;;;;;;5005085;28;19925;-80
2023/09/21 00:25:04;;;;;;;;;;;18.40;99.90;;;;;;5006636;28;20062;-80
2023/09/21 00:27:30;;;;;;;;;;;18.40;99.90;;;;;;5021669;27;19925;-80
2023/09/21 00:29:56;;;;;;;;;;;18.30;99.90;;;;;;5003945;28;20371;-80
2023/09/21 00:32:21;;;;;;;;;;;18.30;99.90;;;;;;5008475;28;19921;-76
2023/09/21 00:34:50;;;;;;;;;;;18.30;99.90;;;;;;5009043;28;20023;-76
2023/09/21 00:37:17;;;;;;;;;;;18.30;99.90;;;;;;5021170;28;19931;-76
2023/09/21 00:39:43;;;;;;;;;;;18.30;99.90;;;;;;5006482;28;19968;-78
2023/09/21 00:42:08;;;;;;;;;;;18.30;99.90;;;;;;5023196;28;19972;-78
2023/09/21 00:44:34;;;;;;;;;;;18.30;99.90;;;;;;5008162;28;19943;-77
2023/09/21 00:47:00;;;;;;;;;;;18.30;99.90;;;;;;5006481;28;20831;-78
2023/09/21 00:49:26;;;;;;;;;;;18.30;99.90;;;;;;5019965;28;19921;-80
2023/09/21 00:51:54;;;;;;;;;;;18.20;99.90;;;;;;5006865;28;19973;-80
2023/09/21 00:54:20;;;;;;;;;;;18.30;99.90;;;;;;4999320;28;19924;-81
2023/09/21 00:56:48;;;;;;;;;;;18.30;99.90;;;;;;5018442;27;19935;-80
2023/09/21 00:59:15;;;;;;;;;;;18.30;99.90;;;;;;5010476;28;20382;-80
2023/09/21 01:01:41;;;;;;;;;;;18.30;99.90;;;;;;5016678;28;20388;-80
2023/09/21 01:04:08;;;;;;;;;;;18.30;99.90;;;;;;5020544;28;19921;-77
2023/09/21 01:06:34;;;;;;;;;;;18.30;99.90;;;;;;5002495;28;19929;-78
2023/09/21 01:09:00;;;;;;;;;;;18.30;99.90;;;;;;5004394;28;20032;-77
2023/09/21 01:11:26;;;;;;;;;;;18.20;99.90;;;;;;4995674;28;19921;-77
2023/09/21 01:13:52;;;;;;;;;;;18.30;99.90;;;;;;5017310;28;19921;-77
2023/09/21 01:16:18;;;;;;;;;;;18.30;99.90;;;;;;4994896;28;19971;-76
2023/09/21 01:18:43;;;;;;;;;;;18.30;99.90;;;;;;5035166;27;19928;-76
2023/09/21 01:21:10;;;;;;;;;;;18.30;99.90;;;;;;4999658;28;19929;-77
2023/09/21 01:23:43;;;;;;;;;;;18.30;99.90;;;;;;5004107;28;19921;-76
2023/09/21 01:26:10;;;;;;;;;;;18.20;99.90;;;;;;5013089;28;19928;-76
2023/09/21 01:28:37;;;;;;;;;;;18.30;99.90;;;;;;5015655;28;19931;-80
2023/09/21 01:31:03;;;;;;;;;;;18.30;99.90;;;;;;5020311;27;19933;-80
2023/09/21 01:33:28;;;;;;;;;;;18.30;99.90;;;;;;5001027;28;19925;-80
2023/09/21 01:35:54;;;;;;;;;;;18.30;99.90;;;;;;4999332;28;19964;-79
2023/09/21 01:38:20;;;;;;;;;;;18.40;99.90;;;;;;5018128;28;19947;-80
2023/09/21 01:40:48;;;;;;;;;;;18.40;99.90;;;;;;5017218;28;19928;-79
2023/09/21 01:43:15;;;;;;;;;;;18.40;99.90;;;;;;5015042;28;19925;-81
2023/09/21 01:45:42;;;;;;;;;;;18.40;99.90;;;;;;5015055;28;20592;-81
2023/09/21 01:48:09;;;;;;;;;;;18.50;99.90;;;;;;5015603;28;20062;-80
2023/09/21 01:50:43;;;;;;;;;;;18.50;99.90;;;;;;5018764;28;20372;-75
2023/09/21 01:53:09;;;;;;;;;;;18.60;99.90;;;;;;4989869;28;19956;-76
2023/09/21 01:55:35;;;;;;;;;;;18.60;99.90;;;;;;5000591;28;19964;-77
2023/09/21 01:58:05;;;;;;;;;;;18.60;99.90;;;;;;5001410;28;19959;-76
2023/09/21 02:00:34;;;;;;;;;;;18.60;99.90;;;;;;5013500;28;19923;-76
2023/09/21 02:03:03;;;;;;;;;;;18.60;99.90;;;;;;5010328;28;19928;-76
2023/09/21 02:05:29;;;;;;;;;;;18.60;99.90;;;;;;5016639;28;19925;-77
2023/09/21 02:07:55;;;;;;;;;;;18.60;99.90;;;;;;5019585;28;19921;-76
2023/09/21 02:10:21;;;;;;;;;;;18.60;99.90;;;;;;5017517;28;20022;-77
2023/09/21 02:12:57;;;;;;;;;;;18.50;99.90;;;;;;5018674;28;19928;-77
2023/09/21 02:15:23;;;;;;;;;;;18.60;99.90;;;;;;5020781;28;19965;-77
2023/09/21 02:17:49;;;;;;;;;;;18.50;99.90;;;;;;5006953;28;19936;-76
2023/09/21 02:20:18;;;;;;;;;;;18.40;99.90;;;;;;5003189;28;20577;-76
2023/09/21 02:22:44;;;;;;;;;;;18.50;99.90;;;;;;4995533;28;19928;-76
2023/09/21 02:25:19;;;;;;;;;;;18.50;99.90;;;;;;5004556;28;19925;-77
2023/09/21 02:27:46;;;;;;;;;;;18.50;99.90;;;;;;4994038;28;19921;-77
2023/09/21 02:30:22;;;;;;;;;;;18.50;99.90;;;;;;5023215;28;20306;-76
2023/09/21 02:32:51;;;;;;;;;;;18.50;99.90;;;;;;5020089;27;19983;-77
2023/09/21 02:35:19;;;;;;;;;;;18.50;99.90;;;;;;5020089;28;20435;-76
2023/09/21 02:37:48;;;;;;;;;;;18.40;99.90;;;;;;5005332;28;20387;-78
2023/09/21 02:40:15;;;;;;;;;;;18.40;99.90;;;;;;5009523;27;19921;-76
2023/09/21 02:42:41;;;;;;;;;;;18.40;99.90;;;;;;5009325;27;19985;-76
2023/09/21 02:45:10;;;;;;;;;;;18.40;99.90;;;;;;5026355;27;19930;-76
2023/09/21 02:47:36;;;;;;;;;;;18.40;99.90;;;;;;5026832;27;19950;-76
2023/09/21 02:50:14;;;;;;;;;;;18.40;99.90;;;;;;5011651;27;19924;-77
2023/09/21 02:52:46;;;;;;;;;;;18.30;99.90;;;;;;5026464;27;19977;-79
2023/09/21 02:55:20;;;;;;;;;;;18.40;99.90;;;;;;5017698;28;19977;-80
2023/09/21 02:57:47;;;;;;;;;;;18.40;99.90;;;;;;5010515;27;19927;-79
2023/09/21 03:00:46;;;;;;;;;;;18.40;99.90;;;;;;5027763;27;19936;-80
2023/09/21 03:03:06;;;;;;;;;;;18.40;99.90;;;;;;5024600;27;19921;-80
2023/09/21 03:05:36;;;;;;;;;;;18.40;99.90;;;;;;5025121;27;19985;-80
2023/09/21 03:08:13;;;;;;;;;;;18.30;99.90;;;;;;5011895;27;20002;-79
2023/09/21 03:10:47;;;;;;;;;;;18.30;99.90;;;;;;5021940;27;20631;-80
2023/09/21 03:13:19;;;;;;;;;;;18.30;99.90;;;;;;5031277;27;19919;-79
2023/09/21 03:15:47;;;;;;;;;;;18.30;99.90;;;;;;5009355;27;20023;-79
2023/09/21 03:18:18;;;;;;;;;;;18.30;99.90;;;;;;5013321;27;19920;-80
2023/09/21 03:20:45;;;;;;;;;;;18.30;99.90;;;;;;5025633;27;19943;-80
2023/09/21 03:23:11;;;;;;;;;;;18.30;99.90;;;;;;5024873;27;20492;-80
2023/09/21 03:25:41;;;;;;;;;;;18.20;99.90;;;;;;5030629;27;19924;-80
2023/09/21 03:28:16;;;;;;;;;;;18.30;99.90;;;;;;5007198;27;19945;-80
2023/09/21 03:30:43;;;;;;;;;;;18.20;99.90;;;;;;5013271;27;19928;-76
2023/09/21 03:33:09;;;;;;;;;;;18.30;99.90;;;;;;5010425;27;20395;-77
2023/09/21 03:35:35;;;;;;;;;;;18.30;99.90;;;;;;5030772;27;19992;-76
2023/09/21 03:38:01;;;;;;;;;;;18.30;99.90;;;;;;5025876;27;19921;-76
2023/09/21 03:40:26;;;;;;;;;;;18.20;99.90;;;;;;5025135;27;19928;-76
2023/09/21 03:42:55;;;;;;;;;;;18.30;99.90;;;;;;5012363;27;19929;-76
2023/09/21 03:45:24;;;;;;;;;;;18.30;99.90;;;;;;5011768;27;19928;-77
2023/09/21 03:47:53;;;;;;;;;;;18.30;99.90;;;;;;5019899;27;19929;-76
2023/09/21 03:50:19;;;;;;;;;;;18.30;99.90;;;;;;5008505;28;19921;-77
2023/09/21 03:52:45;;;;;;;;;;;18.20;99.90;;;;;;5002643;28;19927;-76
2023/09/21 03:55:15;;;;;;;;;;;18.30;99.90;;;;;;5023018;28;20489;-80
2023/09/21 03:57:47;;;;;;;;;;;18.20;99.90;;;;;;4997947;28;19946;-80
2023/09/21 04:02:48;;;;;;;;;;;18.30;99.90;;;;;;5021208;28;20023;-80
2023/09/21 04:05:18;;;;;;;;;;;18.20;99.90;;;;;;5021739;28;20020;-80
2023/09/21 04:07:45;;;;;;;;;;;18.20;99.90;;;;;;4998487;28;20117;-80
2023/09/21 04:10:11;;;;;;;;;;;18.10;99.90;;;;;;5005768;28;20282;-80
2023/09/21 04:12:39;;;;;;;;;;;18.10;99.90;;;;;;5022213;28;19970;-79
2023/09/21 04:15:08;;;;;;;;;;;18.10;99.90;;;;;;5007298;27;19970;-80
2023/09/21 04:17:35;;;;;;;;;;;18.10;99.90;;;;;;5023251;28;20438;-80
2023/09/21 04:20:04;;;;;;;;;;;18.10;99.90;;;;;;5020068;28;19932;-80
2023/09/21 04:22:31;;;;;;;;;;;18.00;99.90;;;;;;5006378;28;20488;-80
2023/09/21 04:25:00;;;;;;;;;;;18.00;99.90;;;;;;5008685;28;20378;-77
2023/09/21 04:27:25;;;;;;;;;;;18.00;99.90;;;;;;5001238;28;19925;-76
2023/09/21 04:29:51;;;;;;;;;;;18.00;99.90;;;;;;5020913;28;20332;-76
2023/09/21 04:32:17;;;;;;;;;;;18.10;99.90;;;;;;5023217;28;19933;-76
2023/09/21 04:34:42;;;;;;;;;;;18.10;99.90;;;;;;5023718;28;19920;-76
2023/09/21 04:37:11;;;;;;;;;;;18.10;99.90;;;;;;5020193;27;19921;-78
2023/09/21 04:39:37;;;;;;;;;;;18.00;99.90;;;;;;5021883;28;19977;-76
2023/09/21 04:42:03;;;;;;;;;;;18.00;99.90;;;;;;4993154;28;19928;-77
2023/09/21 04:44:30;;;;;;;;;;;18.00;99.90;;;;;;5023922;27;19928;-77
2023/09/21 04:46:56;;;;;;;;;;;17.90;99.90;;;;;;4996555;28;20378;-80
2023/09/21 04:49:21;;;;;;;;;;;18.00;99.90;;;;;;5006692;28;19929;-80
2023/09/21 04:51:47;;;;;;;;;;;17.90;99.90;;;;;;4991893;27;20020;-76
2023/09/21 04:54:13;;;;;;;;;;;17.90;99.90;;;;;;5023334;28;19920;-78
2023/09/21 04:56:39;;;;;;;;;;;17.90;99.90;;;;;;5004459;27;19929;-76
2023/09/21 04:59:04;;;;;;;;;;;17.90;99.90;;;;;;5019830;28;20388;-77
2023/09/21 05:01:31;;;;;;;;;;;18.00;99.90;;;;;;5021436;28;19929;-76
2023/09/21 05:03:56;;;;;;;;;;;18.00;99.90;;;;;;5016500;28;20314;-77
2023/09/21 05:06:23;;;;;;;;;;;18.00;99.90;;;;;;5020765;27;19929;-80
2023/09/21 05:08:49;;;;;;;;;;;18.00;99.90;;;;;;5018813;28;20331;-80
2023/09/21 05:11:15;;;;;;;;;;;18.00;99.90;;;;;;5021884;27;19925;-80
2023/09/21 05:13:40;;;;;;;;;;;18.00;99.90;;;;;;5019628;28;19973;-79
2023/09/21 05:16:06;;;;;;;;;;;18.00;99.90;;;;;;5018727;28;19928;-80
2023/09/21 05:18:36;;;;;;;;;;;18.00;99.90;;;;;;4998363;28;19929;-77
2023/09/21 05:21:04;;;;;;;;;;;18.10;99.90;;;;;;5019561;28;20374;-76
2023/09/21 05:23:30;;;;;;;;;;;18.00;99.90;;;;;;4995650;28;19921;-76
2023/09/21 05:25:56;;;;;;;;;;;18.10;99.90;;;;;;5023166;28;19927;-77
2023/09/21 05:28:22;;;;;;;;;;;18.10;99.90;;;;;;5012099;28;20437;-77
2023/09/21 05:30:48;;;;;;;;;;;18.10;99.90;;;;;;5019042;28;19921;-77
2023/09/21 05:33:13;;;;;;;;;;;18.10;99.90;;;;;;5019941;28;21103;-76
2023/09/21 05:35:39;;;;;;;;;;;18.10;99.90;;;;;;5017527;28;19929;-76
2023/09/21 05:38:06;;;;;;;;;;;18.20;99.90;;;;;;4998176;28;19936;-76
2023/09/21 05:40:33;;;;;;;;;;;18.20;99.90;;;;;;5015759;27;19925;-77
2023/09/21 05:42:59;;;;;;;;;;;18.30;99.90;;;;;;5018576;28;19928;-80
2023/09/21 05:45:24;;;;;;;;;;;18.30;99.90;;;;;;5024587;27;20602;-80
2023/09/21 05:47:50;;;;;;;;;;;18.30;99.90;;;;;;5019273;28;19921;-81
2023/09/21 05:50:16;;;;;;;;;;;18.40;99.90;;;;;;5019505;28;20604;-80
2023/09/21 05:52:42;;;;;;;;;;;18.40;99.90;;;;;;4996839;28;19921;-81
2023/09/21 05:55:11;;;;;;;;;;;18.30;99.90;;;;;;5018992;28;19921;-81
2023/09/21 05:57:39;;;;;;;;;;;18.30;99.90;;;;;;5021684;28;19943;-81
2023/09/21 06:00:07;;;;;;;;;;;18.30;99.90;;;;;;5017802;28;19976;-81
2023/09/21 06:02:33;;;;;;;;;;;18.30;99.90;;;;;;5018989;28;20438;-80
2023/09/21 06:04:58;;;;;;;;;;;18.30;99.90;;;;;;5003483;28;20081;-80
2023/09/21 06:07:25;;;;;;;;;;;18.30;99.90;;;;;;5019615;28;19929;-80
2023/09/21 06:09:51;;;;;;;;;;;18.30;99.90;;;;;;5019152;28;20011;-81
2023/09/21 06:12:16;;;;;;;;;;;18.30;99.90;;;;;;5021752;28;20404;-82
2023/09/21 06:14:42;;;;;;;;;;;18.30;99.90;;;;;;5003188;28;19932;-82
2023/09/21 06:17:10;;;;;;;;;;;18.30;99.90;;;;;;5020243;28;20909;-81
2023/09/21 06:19:40;;;;;;;;;;;18.30;99.90;;;;;;5015678;28;19928;-81
2023/09/21 06:22:06;;;;;;;;;;;18.30;99.90;;;;;;5018270;28;19924;-81
2023/09/21 06:24:31;;;;;;;;;;;18.30;99.90;;;;;;5016745;28;20376;-82
2023/09/21 06:26:57;;;;;;;;;;;18.30;99.90;;;;;;5021645;28;19960;-81
2023/09/21 06:29:23;;;;;;;;;;;18.30;99.90;;;;;;5016257;28;19973;-81
2023/09/21 06:31:53;;;;;;;;;;;18.30;99.90;;;;;;5023264;28;20175;-81
2023/09/21 06:34:22;;;;;;;;;;;18.30;99.90;;;;;;5001454;28;20426;-82
2023/09/21 06:36:48;;;;;;;;;;;18.40;99.90;;;;;;5019043;28;19929;-82
2023/09/21 06:39:16;;;;;;;;;;;18.30;99.90;;;;;;4991625;28;19928;-81
2023/09/21 06:41:44;;;;;;;;;;;18.30;99.90;;;;;;5003246;28;19939;-81
2023/09/21 06:44:09;;;;;;;;;;;18.30;99.90;;;;;;5001030;28;19924;-82
2023/09/21 06:46:35;;;;;;;;;;;18.20;99.90;;;;;;5003854;28;20303;-81
2023/09/21 06:49:03;;;;;;;;;;;18.20;99.90;;;;;;5007275;28;19924;-81
2023/09/21 06:51:28;;;;;;;;;;;18.10;99.90;;;;;;5003252;28;20184;-82
2023/09/21 06:53:54;;;;;;;;;;;18.10;99.90;;;;;;5015154;28;20037;-81
2023/09/21 06:56:21;;;;;;;;;;;18.10;99.90;;;;;;5001486;28;20066;-81
2023/09/21 06:58:47;;;;;;;;;;;18.10;99.90;;;;;;5018647;27;19936;-81
2023/09/21 07:01:13;;;;;;;;;;;18.10;99.90;;;;;;5018972;28;19929;-80
2023/09/21 07:03:40;;;;;;;;;;;18.10;99.90;;;;;;5017121;28;20376;-82
2023/09/21 07:06:05;;;;;;;;;;;18.10;99.90;;;;;;5017714;28;19959;-82
2023/09/21 07:08:31;;;;;;;;;;;18.00;99.90;;;;;;5000263;28;20053;-81
2023/09/21 07:10:57;;;;;;;;;;;18.00;99.90;;;;;;4995473;28;20103;-81
2023/09/21 07:13:24;;;;;;;;;;;17.90;99.90;;;;;;5017701;28;19921;-81
2023/09/21 07:15:51;;;;;;;;;;;17.90;99.90;;;;;;5017286;28;19929;-81
2023/09/21 07:18:18;;;;;;;;;;;17.90;99.90;;;;;;5024638;28;19925;-80
2023/09/21 07:20:44;;;;;;;;;;;17.80;99.90;;;;;;5021323;28;19924;-81
2023/09/21 07:23:10;;;;;;;;;;;17.90;99.90;;;;;;5017581;28;20571;-77
2023/09/21 07:25:36;;;;;;;;;;;17.80;99.90;;;;;;5019382;28;20420;-77
2023/09/21 07:28:01;;;;;;;;;;;17.80;99.90;;;;;;4997304;28;19928;-77
2023/09/21 07:30:28;;;;;;;;;;;17.80;99.90;;;;;;5002924;28;19971;-77
2023/09/21 07:32:55;;;;;;;;;;;17.80;99.90;;;;;;5019489;28;19979;-77
2023/09/21 07:35:24;;;;;;;;;;;17.80;99.90;;;;;;5006732;28;19921;-77
2023/09/21 07:37:50;;;;;;;;;;;17.80;99.90;;;;;;5024715;27;19921;-76
2023/09/21 07:40:16;;;;;;;;;;;17.80;99.90;;;;;;5018380;28;20334;-77
2023/09/21 07:42:46;;;;;;;;;;;17.80;99.90;;;;;;5020996;28;19927;-77
2023/09/21 07:45:11;;;;;;;;;;;17.80;99.90;;;;;;5022410;28;19964;-77
2023/09/21 07:47:41;;;;;;;;;;;17.80;99.90;;;;;;4998965;28;20658;-77
2023/09/21 07:50:07;;;;;;;;;;;17.80;99.90;;;;;;4989279;28;19921;-76
2023/09/21 07:52:33;;;;;;;;;;;17.80;99.90;;;;;;5019715;28;19928;-76
2023/09/21 07:55:03;;;;;;;;;;;17.80;99.90;;;;;;5017831;28;19936;-76
2023/09/21 07:57:32;;;;;;;;;;;17.80;99.90;;;;;;5010982;27;19981;-76
2023/09/21 07:59:58;;;;;;;;;;;17.80;99.90;;;;;;5020874;28;20387;-76
2023/09/21 08:02:25;;;;;;;;;;;17.90;99.90;;;;;;5023236;28;19925;-75
2023/09/21 08:04:50;;;;;;;;;;;17.90;99.90;;;;;;5022120;28;20411;-77
2023/09/21 08:07:23;;;;;;;;;;;17.80;99.90;;;;;;5021037;28;20005;-81
2023/09/21 08:09:48;;;;;;;;;;;17.80;99.90;;;;;;5003678;28;19929;-82
2023/09/21 08:12:14;;;;;;;;;;;17.80;99.90;;;;;;5006970;28;19970;-83
2023/09/21 08:14:40;;;;;;;;;;;17.80;99.90;;;;;;4997059;28;19924;-85
2023/09/21 08:17:07;;;;;;;;;;;17.80;99.90;;;;;;4992910;28;19960;-85
2023/09/21 08:19:35;;;;;;;;;;;17.80;99.90;;;;;;4996006;28;20264;-85
2023/09/21 08:22:04;;;;;;;;;;;17.70;99.90;;;;;;5078045;28;19932;-84
2023/09/21 08:24:31;;;;;;;;;;;17.80;99.90;;;;;;4996958;28;19925;-82
2023/09/21 08:26:57;;;;;;;;;;;17.70;99.90;;;;;;4981749;28;20357;-83
2023/09/21 08:29:22;;;;;;;;;;;17.70;99.90;;;;;;4995368;28;19926;-83
2023/09/21 08:31:48;;;;;;;;;;;17.70;99.90;;;;;;4998971;28;20347;-82
2023/09/21 08:34:15;;;;;;;;;;;17.60;99.90;;;;;;4982966;28;20346;-83
2023/09/21 08:36:44;;;;;;;;;;;17.60;99.90;;;;;;5000040;28;19936;-84
2023/09/21 08:39:10;;;;;;;;;;;17.60;99.90;;;;;;4981659;28;19970;-84
2023/09/21 08:41:37;;;;;;;;;;;17.60;99.90;;;;;;4994832;28;20021;-83
2023/09/21 08:44:04;;;;;;;;;;;17.60;99.90;;;;;;4983984;28;21237;-75
2023/09/21 08:46:30;;;;;;;;;;;17.60;99.90;;;;;;4994041;28;19936;-75
2023/09/21 08:48:58;;;;;;;;;;;17.60;99.90;;;;;;4978113;28;20468;-75
2023/09/21 08:51:24;;;;;;;;;;;17.60;99.90;;;;;;4978554;28;20379;-75
2023/09/21 08:53:51;;;;;;;;;;;17.60;99.90;;;;;;4996922;28;19929;-75
2023/09/21 08:56:20;;;;;;;;;;;17.60;99.90;;;;;;4982306;28;19992;-75
2023/09/21 08:58:47;;;;;;;;;;;17.50;99.90;;;;;;5065374;28;19922;-75
2023/09/21 09:01:13;;;;;;;;;;;17.50;99.90;;;;;;4977014;28;19929;-75
2023/09/21 09:03:42;;;;;;;;;;;17.60;99.90;;;;;;4978642;28;19921;-75
2023/09/21 09:06:10;;;;;;;;;;;17.50;99.90;;;;;;5064711;28;20261;-75
2023/09/21 09:08:36;;;;;;;;;;;17.50;99.90;;;;;;4980704;28;20319;-75
2023/09/21 09:11:02;;;;;;;;;;;17.50;99.90;;;;;;4993592;28;19936;-75
2023/09/21 09:13:31;;;;;;;;;;;17.50;99.90;;;;;;5002323;28;20013;-76
2023/09/21 09:15:59;;;;;;;;;;;17.50;99.90;;;;;;4983849;28;20445;-75
2023/09/21 09:18:26;;;;;;;;;;;17.40;99.90;;;;;;5021505;28;19925;-75
2023/09/21 09:20:51;;;;;;;;;;;17.40;99.90;;;;;;5001759;28;19929;-75
2023/09/21 09:23:18;;;;;;;;;;;17.40;99.90;;;;;;5022720;28;20366;-75
2023/09/21 09:25:43;;;;;;;;;;;17.40;99.90;;;;;;5004000;28;19924;-75
2023/09/21 09:28:09;;;;;;;;;;;17.40;99.90;;;;;;5020391;28;20287;-75
2023/09/21 09:30:38;;;;;;;;;;;17.30;99.90;;;;;;4995588;28;20318;-75
2023/09/21 09:33:09;;;;;;;;;;;17.30;99.90;;;;;;5017450;28;20302;-75
2023/09/21 09:35:37;;;;;;;;;;;17.30;99.90;;;;;;5017730;28;20019;-75
2023/09/21 09:38:08;;;;;;;;;;;17.30;99.90;;;;;;5005675;28;20291;-76
2023/09/21 09:40:37;;;;;;;;;;;17.30;99.90;;;;;;5015295;28;19956;-75
2023/09/21 09:43:05;;;;;;;;;;;17.30;99.90;;;;;;5018981;28;19936;-75
2023/09/21 09:45:31;;;;;;;;;;;17.30;99.90;;;;;;5019816;28;19928;-75
2023/09/21 09:48:01;;;;;;;;;;;17.20;99.90;;;;;;5004118;28;19928;-75
2023/09/21 09:50:31;;;;;;;;;;;17.30;99.90;;;;;;5017251;27;19970;-76
2023/09/21 09:53:06;;;;;;;;;;;17.20;99.90;;;;;;4996601;28;19925;-76
2023/09/21 09:55:33;;;;;;;;;;;17.20;99.90;;;;;;5002375;28;19977;-74
2023/09/21 09:58:00;;;;;;;;;;;17.00;99.90;;;;;;5021760;28;19954;-74
2023/09/21 10:00:29;;;;;;;;;;;17.00;99.90;;;;;;5016911;28;19931;-74
2023/09/21 10:02:56;;;;;;;;;;;17.00;99.90;;;;;;5019785;28;19932;-74
2023/09/21 10:05:28;;;;;;;;;;;16.90;99.90;;;;;;5017786;28;19928;-75
2023/09/21 10:07:56;;;;;;;;;;;16.90;99.90;;;;;;5005969;28;19924;-75
2023/09/21 10:10:24;;;;;;;;;;;16.80;99.90;;;;;;5005340;28;19920;-75
2023/09/21 10:12:51;;;;;;;;;;;16.70;99.90;;;;;;5019706;28;20339;-75
2023/09/21 10:15:22;;;;;;;;;;;16.70;99.90;;;;;;5002423;28;19932;-75
2023/09/21 10:17:50;;;;;;;;;;;16.70;99.90;;;;;;4992049;28;19926;-75
2023/09/21 10:20:24;;;;;;;;;;;16.70;99.90;;;;;;5018336;28;20492;-75
2023/09/21 10:22:51;;;;;;;;;;;16.60;99.90;;;;;;5018860;28;20586;-75
2023/09/21 10:25:34;;;;;;;;;;;16.60;99.90;;;;;;5004786;28;19990;-75
2023/09/21 10:27:59;;;;;;;;;;;16.60;99.90;;;;;;5011374;28;19925;-74
2023/09/21 10:30:25;;;;;;;;;;;16.60;99.90;;;;;;4993981;28;19927;-75
2023/09/21 10:32:53;;;;;;;;;;;16.60;99.90;;;;;;4989525;28;19921;-75
2023/09/21 10:35:21;;;;;;;;;;;16.50;99.90;;;;;;5016234;28;19929;-75
2023/09/21 10:37:51;;;;;;;;;;;16.50;99.90;;;;;;5020228;28;20539;-83
2023/09/21 10:40:25;;;;;;;;;;;16.50;99.90;;;;;;5014557;28;20003;-83
2023/09/21 10:42:51;;;;;;;;;;;16.50;99.90;;;;;;5017181;28;19929;-83
2023/09/21 10:45:16;;;;;;;;;;;16.50;99.90;;;;;;4996957;28;19920;-82
2023/09/21 10:47:49;;;;;;;;;;;16.50;99.90;;;;;;4993174;28;20220;-76
2023/09/21 10:50:19;;;;;;;;;;;16.50;99.90;;;;;;4997561;28;19942;-75
2023/09/21 10:52:46;;;;;;;;;;;16.50;99.90;;;;;;5016198;28;20011;-76
2023/09/21 10:55:12;;;;;;;;;;;16.60;99.90;;;;;;4998937;28;20663;-75
2023/09/21 10:57:44;;;;;;;;;;;16.60;99.90;;;;;;5005756;28;20441;-75
2023/09/21 11:00:20;;;;;;;;;;;16.60;99.90;;;;;;5013561;28;20370;-75
2023/09/21 11:02:46;;;;;;;;;;;16.60;99.90;;;;;;5007104;28;19975;-75
2023/09/21 11:05:16;;;;;;;;;;;16.40;99.90;;;;;;5013929;28;20844;-75
2023/09/21 11:07:51;;;;;;;;;;;16.40;99.90;;;;;;5023242;27;20366;-75
2023/09/21 11:10:16;;;;;;;;;;;16.40;99.90;;;;;;5015765;28;19933;-75
2023/09/21 11:12:45;;;;;;;;;;;16.40;99.90;;;;;;5020216;28;19956;-75
2023/09/21 11:15:12;;;;;;;;;;;16.50;99.90;;;;;;5016856;28;19925;-82
2023/09/21 11:17:42;;;;;;;;;;;16.40;99.90;;;;;;5018518;28;20431;-82
2023/09/21 11:20:13;;;;;;;;;;;16.40;99.90;;;;;;5017088;28;20003;-83
2023/09/21 11:22:39;;;;;;;;;;;16.40;99.90;;;;;;5018537;28;19924;-83
2023/09/21 11:25:06;;;;;;;;;;;16.30;99.90;;;;;;4995703;27;20345;-82
2023/09/21 11:27:32;;;;;;;;;;;16.30;99.90;;;;;;5020342;28;19928;-83
2023/09/21 11:29:57;;;;;;;;;;;16.20;99.90;;;;;;4994678;28;19930;-82
2023/09/21 11:32:23;;;;;;;;;;;16.30;99.90;;;;;;5020082;28;19939;-83
2023/09/21 11:34:56;;;;;;;;;;;16.20;99.90;;;;;;5019853;28;19964;-82
2023/09/21 11:37:22;;;;;;;;;;;16.20;99.90;;;;;;5020809;28;19924;-82
2023/09/21 11:39:49;;;;;;;;;;;16.10;99.90;;;;;;5017450;28;19933;-82
2023/09/21 11:42:17;;;;;;;;;;;16.20;99.90;;;;;;5006157;28;20379;-82
2023/09/21 11:44:43;;;;;;;;;;;16.10;99.90;;;;;;5004411;28;19973;-82
2023/09/21 11:47:09;;;;;;;;;;;16.20;99.90;;;;;;5000388;28;19921;-82
2023/09/21 11:49:42;;;;;;;;;;;16.20;99.90;;;;;;5020349;28;19932;-83
2023/09/21 11:52:13;;;;;;;;;;;16.20;99.90;;;;;;5017780;28;20011;-82
2023/09/21 11:54:39;;;;;;;;;;;16.20;99.90;;;;;;5001767;28;19929;-83
2023/09/21 11:57:11;;;;;;;;;;;16.20;99.90;;;;;;5001187;28;19929;-82
2023/09/21 11:59:41;;;;;;;;;;;16.20;99.90;;;;;;5007167;28;19924;-82
2023/09/21 12:02:16;;;;;;;;;;;16.20;99.90;;;;;;5013448;28;20432;-83
2023/09/21 12:04:43;;;;;;;;;;;16.20;99.90;;;;;;5022685;27;19957;-83
2023/09/21 12:07:09;;;;;;;;;;;16.20;99.90;;;;;;5018783;28;19931;-82
2023/09/21 12:09:41;;;;;;;;;;;16.20;99.90;;;;;;5014852;28;20355;-83
2023/09/21 12:12:12;;;;;;;;;;;16.10;99.90;;;;;;5017488;28;20331;-83
2023/09/21 12:14:42;;;;;;;;;;;16.10;99.90;;;;;;5003715;28;19950;-83
2023/09/21 12:17:09;;;;;;;;;;;16.10;99.90;;;;;;4988640;28;20049;-83
2023/09/21 12:19:39;;;;;;;;;;;16.10;99.90;;;;;;4994879;28;19933;-83
2023/09/21 12:22:05;;;;;;;;;;;16.10;99.90;;;;;;4991009;28;20421;-83
2023/09/21 12:24:34;;;;;;;;;;;16.10;99.90;;;;;;4996360;28;19925;-83
2023/09/21 12:27:06;;;;;;;;;;;16.10;99.90;;;;;;4996601;28;19929;-82
2023/09/21 12:29:33;;;;;;;;;;;16.10;99.90;;;;;;4992816;28;19921;-75
2023/09/21 12:31:59;;;;;;;;;;;16.00;99.90;;;;;;4981907;28;19929;-75
2023/09/21 12:34:25;;;;;;;;;;;16.10;99.90;;;;;;4979043;28;19922;-83
2023/09/21 12:36:51;;;;;;;;;;;16.10;99.90;;;;;;4997202;28;20008;-83
2023/09/21 12:39:18;;;;;;;;;;;16.10;99.90;;;;;;4978537;28;20020;-83
2023/09/21 12:41:44;;;;;;;;;;;16.10;99.90;;;;;;4997678;28;19936;-83
2023/09/21 12:44:10;;;;;;;;;;;16.10;99.90;;;;;;4976029;28;19929;-83
2023/09/21 12:46:37;;;;;;;;;;;16.10;99.90;;;;;;4978767;28;19969;-83
2023/09/21 12:49:05;;;;;;;;;;;16.10;99.90;;;;;;4994020;28;20367;-83
2023/09/21 12:51:32;;;;;;;;;;;16.10;99.90;;;;;;4992688;28;19929;-83
2023/09/21 12:53:59;;;;;;;;;;;16.10;99.90;;;;;;4969889;28;19937;-83
2023/09/21 12:56:26;;;;;;;;;;;16.20;99.90;;;;;;4978664;28;20371;-83
2023/09/21 12:58:52;;;;;;;;;;;16.20;99.90;;;;;;4978088;28;19974;-83
2023/09/21 13:01:19;;;;;;;;;;;16.20;99.90;;;;;;4994466;28;19926;-83
2023/09/21 13:03:45;;;;;;;;;;;16.30;99.90;;;;;;4995249;28;19929;-83
2023/09/21 13:06:13;;;;;;;;;;;16.30;99.90;;;;;;4997559;28;19932;-83
2023/09/21 13:08:39;;;;;;;;;;;16.30;99.90;;;;;;4994521;28;20395;-83
2023/09/21 13:11:05;;;;;;;;;;;16.30;99.90;;;;;;4995077;28;19955;-83
2023/09/21 13:13:33;;;;;;;;;;;16.20;99.90;;;;;;4990903;28;19976;-83
2023/09/21 13:15:58;;;;;;;;;;;16.20;99.90;;;;;;4979456;28;19925;-83
2023/09/21 13:18:24;;;;;;;;;;;16.20;99.90;;;;;;4998452;27;19927;-83
2023/09/21 13:20:50;;;;;;;;;;;16.20;99.90;;;;;;5020286;28;19928;-83
2023/09/21 13:23:16;;;;;;;;;;;16.20;99.90;;;;;;4995313;28;19929;-83
2023/09/21 13:25:41;;;;;;;;;;;16.20;99.90;;;;;;5018714;28;19925;-75
2023/09/21 13:28:07;;;;;;;;;;;16.10;99.90;;;;;;5018788;28;20619;-76
2023/09/21 13:30:34;;;;;;;;;;;16.20;99.90;;;;;;5018619;28;19921;-75
2023/09/21 13:32:59;;;;;;;;;;;16.10;99.90;;;;;;5005145;27;20301;-75
2023/09/21 13:35:25;;;;;;;;;;;16.10;99.90;;;;;;5004697;28;19929;-76
2023/09/21 13:37:50;;;;;;;;;;;16.10;99.90;;;;;;5029998;28;19932;-75
2023/09/21 13:40:16;;;;;;;;;;;16.10;99.90;;;;;;5019655;28;19920;-75
2023/09/21 13:42:43;;;;;;;;;;;16.20;99.90;;;;;;5018436;27;20004;-75
2023/09/21 13:45:12;;;;;;;;;;;16.10;99.90;;;;;;5002717;28;19929;-75
2023/09/21 13:47:39;;;;;;;;;;;16.20;99.90;;;;;;5019380;27;19937;-75
2023/09/21 13:50:05;;;;;;;;;;;16.20;99.90;;;;;;5001903;28;19931;-76
2023/09/21 13:52:31;;;;;;;;;;;16.20;99.90;;;;;;5002255;28;20325;-76
2023/09/21 13:54:58;;;;;;;;;;;16.20;99.90;;;;;;4993370;28;19921;-76
2023/09/21 13:57:29;;;;;;;;;;;16.10;99.90;;;;;;5000640;28;19935;-75
2023/09/21 13:59:56;;;;;;;;;;;16.20;99.90;;;;;;5001176;28;20375;-76
2023/09/21 14:02:21;;;;;;;;;;;16.10;99.90;;;;;;5017870;28;20015;-75
2023/09/21 14:04:47;;;;;;;;;;;16.00;99.90;;;;;;4996074;28;20418;-75
2023/09/21 14:07:12;;;;;;;;;;;15.90;99.90;;;;;;5016959;28;19936;-76
2023/09/21 14:09:38;;;;;;;;;;;15.80;99.90;;;;;;5019115;28;19936;-76
2023/09/21 14:12:05;;;;;;;;;;;15.80;99.90;;;;;;5018005;28;20289;-76
2023/09/21 14:14:30;;;;;;;;;;;15.80;99.90;;;;;;5016947;28;19968;-76
2023/09/21 14:16:56;;;;;;;;;;;15.70;99.90;;;;;;5023482;27;19974;-76
2023/09/21 14:19:22;;;;;;;;;;;15.60;99.90;;;;;;5014604;28;19924;-76